CSUN Campus Station - National Weather Service Data Page - PST Time




                Date      RH     Dew  Seasonal     Current   Max Air   Min Air    Wind    Wind    Wind    Gust     Bar    Rain
                Time       %   Point      Rain    Air Temp     Since     Since   Speed    Gust     Dir     Dir   Press   Total
                               Deg F    Inches       Deg F  Midnight  Midnight     MPH     MPH                      mb  Inches
------------------------------------------------------------------------------------------------------------------------------
    08/28/2015 00:00      49    57.2      0.77        77.5     101.4      69.2       2       4      44      33    1012    0.00
    08/28/2015 00:10      50    57.3      0.77        77.6      77.8      77.3       1       3      58      25    1012    0.00
    08/28/2015 00:20      50    57.2      0.77        77.2      77.8      77.0       1       3      52      30    1012    0.00
    08/28/2015 00:30      50    57.1      0.77        77.0      77.8      76.7       2       3      41      47    1012    0.00
    08/28/2015 00:40      51    57.1      0.77        76.7      77.8      76.5       2       3      42      40    1012    0.00
    08/28/2015 00:50      52    57.1      0.77        76.5      77.8      76.0       0       3      21      35    1012    0.00
    08/28/2015 01:00      55    57.6      0.77        75.5      77.8      75.0       0       0       0       9    1012    0.00
    08/28/2015 01:10      56    57.7      0.77        74.7      77.8      74.5       0       0       0     297    1012    0.00
    08/28/2015 01:20      57    57.6      0.77        74.2      77.8      73.7       0       0       0     272    1012    0.00
    08/28/2015 01:30      56    57.5      0.77        73.8      77.8      73.6       0       0       0     278    1012    0.00
    08/28/2015 01:40      58    57.5      0.77        73.6      77.8      73.3       0       0       0     349    1012    0.00
    08/28/2015 01:50      58    57.9      0.77        73.5      77.8      73.3       0       0       0      25    1012    0.00
    08/28/2015 02:00      59    57.8      0.77        73.1      77.8      72.7       0       0       0      47    1012    0.00
    08/28/2015 02:10      58    57.5      0.77        73.0      77.8      72.7       0       0      12      10    1012    0.00
    08/28/2015 02:20      58    57.6      0.77        72.7      77.8      72.3       0       2       2       4    1012    0.00
    08/28/2015 02:30      56    57.0      0.77        73.0      77.8      72.3       0       1      29      31    1012    0.00
    08/28/2015 02:40      56    56.8      0.77        73.1      77.8      72.3       0       1     356      26    1012    0.00
    08/28/2015 02:50      57    56.6      0.77        72.5      77.8      72.1       0       0     299     308    1012    0.00
    08/28/2015 03:00      58    56.5      0.77        72.2      77.8      72.0       0       0       0     294    1012    0.00
    08/28/2015 03:10      58    56.3      0.77        71.8      77.8      71.5       0       2     257     256    1011    0.00
    08/28/2015 03:20      57    55.7      0.77        71.7      77.8      71.4       0       2     263     265    1011    0.00
    08/28/2015 03:30      57    55.9      0.77        72.0      77.8      71.4       0       0     285     258    1011    0.00
    08/28/2015 03:40      58    56.4      0.77        71.9      77.8      71.4       0       0     303     299    1011    0.00
    08/28/2015 03:50      59    56.5      0.77        71.7      77.8      71.4       0       1     108     111    1011    0.00
    08/28/2015 04:00      61    57.1      0.77        71.3      77.8      70.9       0       3     316     337    1011    0.00
    08/28/2015 04:10      62    57.3      0.77        71.3      77.8      70.9       0       1     303     295    1011    0.00
    08/28/2015 04:20      61    57.2      0.77        71.2      77.8      70.9       0       2     324     334    1011    0.00
    08/28/2015 04:30      60    56.9      0.77        71.2      77.8      70.9       0       0       0     328    1011    0.00
    08/28/2015 04:40      62    56.8      0.77        71.1      77.8      70.6       0       0       0     349    1011    0.00
    08/28/2015 04:50      62    57.0      0.77        70.6      77.8      70.5       0       1     335     329    1011    0.00
    08/28/2015 05:00      61    56.9      0.77        70.8      77.8      70.5       0       1     344     350    1011    0.00
    08/28/2015 05:10      59    56.4      0.77        70.9      77.8      70.5       0       1      30      32    1011    0.00
    08/28/2015 05:20      61    56.1      0.77        70.8      77.8      70.3       0       0       0     101    1012    0.00
    08/28/2015 05:30      61    56.4      0.77        70.3      77.8      70.1       0       0       0      88    1012    0.00
    08/28/2015 05:40      61    56.3      0.77        70.4      77.8      70.1       0       0       0      86    1012    0.00
    08/28/2015 05:50      60    56.3      0.77        70.5      77.8      70.1       0       1     327     331    1012    0.00
    08/28/2015 06:00      60    56.3      0.77        70.8      77.8      70.1       0       0       0     321    1012    0.00
    08/28/2015 06:10      58    56.2      0.77        71.0      77.8      70.1       0       1     297     297    1012    0.00
    08/28/2015 06:20      54    55.5      0.77        71.8      77.8      70.1       0       0     306     296    1012    0.00
    08/28/2015 06:30      52    55.1      0.77        73.2      77.8      70.1       0       2     287     306    1012    0.00
    08/28/2015 06:40      49    54.5      0.77        74.8      77.8      70.1       0       2     268     249    1012    0.00
    08/28/2015 06:50      47    54.7      0.77        75.9      77.8      70.1       1       2     260     254    1012    0.00
    08/28/2015 07:00      46    55.0      0.77        76.9      77.8      70.1       1       2     268     248    1012    0.00
    08/28/2015 07:10      43    54.7      0.77        77.9      78.6      70.1       0       2     245     255    1012    0.00
    08/28/2015 07:20      40    54.7      0.77        79.3      80.4      70.1       0       1     182     209    1012    0.00
    08/28/2015 07:30      38    53.0      0.77        80.8      81.6      70.1       0       1     164     156    1012    0.00
    08/28/2015 07:40      36    53.3      0.77        81.9      82.8      70.1       0       2     188     210    1012    0.00
    08/28/2015 07:50      34    52.2      0.77        82.6      83.3      70.1       0       1     180     201    1012    0.00
    08/28/2015 08:00      30    51.6      0.77        84.2      85.2      70.1       0       2     171     174    1012    0.00
    08/28/2015 08:10      28    50.4      0.77        85.4      86.2      70.1       0       2     230     222    1012    0.00
    08/28/2015 08:20      28    49.8      0.77        86.7      87.4      70.1       0       2     243     194    1012    0.00
    08/28/2015 08:30      26    49.5      0.77        87.5      88.0      70.1       0       3     193     207    1012    0.00
    08/28/2015 08:40      25    49.2      0.77        88.0      88.6      70.1       1       4     177     227    1012    0.00
    08/28/2015 08:50      26    49.1      0.77        89.1      89.6      70.1       0       4     241     198    1012    0.00
    08/28/2015 09:00      25    48.5      0.77        88.5      89.6      70.1       2       4     219     204    1012    0.00
    08/28/2015 09:10      24    48.4      0.77        89.9      90.5      70.1       0       3     139     142    1012    0.00
    08/28/2015 09:20      23    49.1      0.77        90.4      90.9      70.1       3       4     159     170    1012    0.00
    08/28/2015 09:30      22    48.2      0.77        91.1      92.0      70.1       1       4      77      90    1012    0.00
    08/28/2015 09:40      20    48.0      0.77        92.4      92.9      70.1       1       4     146     116    1012    0.00
    08/28/2015 09:50      20    45.5      0.77        92.8      93.3      70.1       2       5      84      85    1012    0.00
    08/28/2015 10:00      17    43.7      0.77        93.5      94.0      70.1       2       5      90      57    1012    0.00
    08/28/2015 10:10      17    43.3      0.77        94.2      95.1      70.1       2       6      65      49    1012    0.00
    08/28/2015 10:20      20    43.9      0.77        94.6      95.2      70.1       2       5     160     135    1012    0.00
    08/28/2015 10:30      17    44.4      0.77        94.7      95.3      70.1       3       6     184     186    1012    0.00
    08/28/2015 10:40      15    42.6      0.77        94.9      95.5      70.1       2       5     189     173    1012    0.00
    08/28/2015 10:50      16    42.3      0.77        96.2      96.8      70.1       2       8      86     124    1012    0.00
    08/28/2015 11:00      16    43.3      0.77        96.7      97.1      70.1       3       5     115      77    1011    0.00
    08/28/2015 11:10      16    43.3      0.77        97.7      98.3      70.1       3       7     134     173    1011    0.00
    08/28/2015 11:20      16    43.3      0.77        97.8      98.6      70.1       3       7     193     196    1011    0.00
    08/28/2015 11:30      16    44.3      0.77        98.4      99.3      70.1       3       9     232     172    1011    0.00
    08/28/2015 11:40      16    44.2      0.77        99.1      99.7      70.1       3       7     172     147    1011    0.00
    08/28/2015 11:50      15    44.8      0.77        99.5     100.5      70.1       2       6     209     201    1011    0.00
    08/28/2015 12:00      15    44.6      0.77       100.5     100.9      70.1       4       7     160     170    1011    0.00
    08/28/2015 12:10      14    43.6      0.77       100.6     101.0      70.1       2       5     145     184    1010    0.00
    08/28/2015 12:20      15    43.9      0.77       100.7     101.4      70.1       3       8     212     191    1010    0.00
    08/28/2015 12:30      15    45.4      0.77       100.4     101.4      70.1       2       6     154     151    1010    0.00
    08/28/2015 12:40      14    45.1      0.77       101.9     102.5      70.1       2       6     201     187    1010    0.00
    08/28/2015 12:50      14    44.5      0.77       102.0     102.5      70.1       3       9     160     176    1010    0.00
    08/28/2015 13:00      14    43.2      0.77       102.2     102.8      70.1       3       5     294     257    1010    0.00
    08/28/2015 13:10      15    44.6      0.77       102.5     103.1      70.1       4      10     161     161    1010    0.00
    08/28/2015 13:20      14    44.7      0.77       102.9     103.3      70.1       4       8     174     158    1010    0.00
    08/28/2015 13:30      12    43.5      0.77       103.5     104.0      70.1       4      11     220     249    1010    0.00
    08/28/2015 13:40      12    40.9      0.77       103.1     104.0      70.1       7      14     281     289    1009    0.00
    08/28/2015 13:50      12    40.3      0.77       102.8     104.0      70.1       6      13     289     287    1009    0.00
    08/28/2015 14:00      11    39.9      0.77       102.9     104.0      70.1       8      16     267     258    1009    0.00
    08/28/2015 14:10      12    39.5      0.77       102.1     104.0      70.1       7      15     273     250    1009    0.00
    08/28/2015 14:20      12    39.5      0.77       102.3     104.0      70.1       7      15     266     262    1009    0.00
    08/28/2015 14:30      12    39.4      0.77       102.0     104.0      70.1       7      14     280     245    1009    0.00
    08/28/2015 14:40      11    39.2      0.77       102.0     104.0      70.1       7      14     257     257    1009    0.00
    08/28/2015 14:50      12    39.7      0.77       102.2     104.0      70.1       6      13     259     244    1009    0.00
    08/28/2015 15:00      13    40.0      0.77       101.4     104.0      70.1       7      16     271     256    1009    0.00
    08/28/2015 15:10      13    40.4      0.77       100.9     104.0      70.1       8      16     270     249    1009    0.00
    08/28/2015 15:20      13    39.4      0.77       100.3     104.0      70.1       7      14     279     271    1009    0.00
    08/28/2015 15:30      12    39.0      0.77       100.1     104.0      70.1       7      13     269     244    1009    0.00
    08/28/2015 15:40      13    39.3      0.77       100.1     104.0      70.1       6      10     276     302    1009    0.00
    08/28/2015 15:50      12    38.9      0.77       100.1     104.0      70.1       5      13     273     260    1009    0.00
    08/28/2015 16:00      14    39.3      0.77        98.9     104.0      70.1       7      13     266     253    1009    0.00
    08/28/2015 16:10      14    40.4      0.77        98.5     104.0      70.1       5      10     279     300    1009    0.00
    08/28/2015 16:20      14    40.1      0.77        98.1     104.0      70.1       7      13     268     249    1009    0.00
    08/28/2015 16:30      14    40.4      0.77        97.6     104.0      70.1       6      13     264     237    1009    0.00
    08/28/2015 16:40      14    40.2      0.77        97.3     104.0      70.1       5       9     271     273    1009    0.00
    08/28/2015 16:50      14    40.5      0.77        96.6     104.0      70.1       6      12     265     249    1009    0.00
    08/28/2015 17:00      14    40.1      0.77        96.2     104.0      70.1       5       9     264     242    1009    0.00
    08/28/2015 17:10      15    40.2      0.77        95.9     104.0      70.1       4       9     267     257    1009    0.00
    08/28/2015 17:20      15    40.2      0.77        95.3     104.0      70.1       4       8     266     241    1009    0.00
    08/28/2015 17:30      15    40.0      0.77        94.7     104.0      70.1       4       9     281     249    1009    0.00
    08/28/2015 17:40      16    40.5      0.77        93.7     104.0      70.1       5       9     280     291    1009    0.00
    08/28/2015 17:50      16    40.7      0.77        93.0     104.0      70.1       3       9     281     253    1009    0.00
    08/28/2015 18:00      17    40.9      0.77        92.4     104.0      70.1       3       8     282     290    1009    0.00
    08/28/2015 18:10      17    41.2      0.77        91.8     104.0      70.1       3       8     272     256    1009    0.00
    08/28/2015 18:20      20    42.4      0.77        90.8     104.0      70.1       3       6     279     283    1009    0.00
    08/28/2015 18:30      22    45.1      0.77        89.9     104.0      70.1       3       7     267     262    1009    0.00
    08/28/2015 18:40      23    45.9      0.77        89.2     104.0      70.1       2       6     264     263    1009    0.00
    08/28/2015 18:50      24    46.3      0.77        88.7     104.0      70.1       1       3     278     268    1009    0.00
    08/28/2015 19:00      25    47.0      0.77        87.8     104.0      70.1       2       4     251     252    1009    0.00
    08/28/2015 19:10      28    48.0      0.77        87.0     104.0      70.1       1       4     245     241    1009    0.00
    08/28/2015 19:20      28    48.5      0.77        85.8     104.0      70.1       1       3     211     203    1009    0.00
    08/28/2015 19:30      27    47.9      0.77        85.4     104.0      70.1       0       2     235     246    1009    0.00
    08/28/2015 19:40      28    48.3      0.77        85.1     104.0      70.1       0       2     225     203    1009    0.00
    08/28/2015 19:50      27    47.6      0.77        85.0     104.0      70.1       0       2     251     259    1010    0.00
    08/28/2015 20:00      27    47.3      0.77        84.6     104.0      70.1       0       2     292     272    1010    0.00
    08/28/2015 20:10      28    47.3      0.77        84.3     104.0      70.1       0       0     258     272    1010    0.00
    08/28/2015 20:20      29    47.8      0.77        83.7     104.0      70.1       0       0       0     202    1010    0.00
    08/28/2015 20:30      30    48.4      0.77        83.4     104.0      70.1       0       1     287     281    1010    0.00
    08/28/2015 20:40      30    48.8      0.77        83.1     104.0      70.1       0       3     258     234    1010    0.00
    08/28/2015 20:50      31    48.8      0.77        82.9     104.0      70.1       0       0       0     294    1010    0.00
    08/28/2015 21:00      32    49.4      0.77        82.6     104.0      70.1       0       2     128     123    1010    0.00
    08/28/2015 21:10      33    50.0      0.77        82.5     104.0      70.1       0       0       0     289    1010    0.00
    08/28/2015 21:20      36    51.3      0.77        82.1     104.0      70.1       2       5      88      85    1010    0.00
    08/28/2015 21:30      39    53.8      0.77        82.3     104.0      70.1       1       4      87      77    1011    0.00
    08/28/2015 21:40      41    55.3      0.77        81.7     104.0      70.1       2       4      84      72    1011    0.00
    08/28/2015 21:50      43    56.5      0.77        81.5     104.0      70.1       2       4      74      67    1011    0.00
    08/28/2015 22:00      45    57.2      0.77        81.0     104.0      70.1       1       4      86      96    1010    0.00
    08/28/2015 22:10      46    57.8      0.77        80.5     104.0      70.1       3       5      86      90    1010    0.00
    08/28/2015 22:20      48    58.2      0.77        80.1     104.0      70.1       2       4      96      79    1010    0.00
    08/28/2015 22:30      50    58.7      0.77        79.5     104.0      70.1       0       4     104      73    1010    0.00
    08/28/2015 22:40      51    59.1      0.77        79.0     104.0      70.1       2       4      98      91    1011    0.00
    08/28/2015 22:50      52    59.4      0.77        78.6     104.0      70.1       2       4      82      90    1011    0.00
    08/28/2015 23:00      53    59.5      0.77        78.3     104.0      70.1       2       5      72      94    1011    0.00
    08/28/2015 23:10      53    59.6      0.77        78.1     104.0      70.1       1       3      67      60    1011    0.00
    08/28/2015 23:20      54    59.7      0.77        78.0     104.0      70.1       0       2      52      35    1011    0.00
    08/28/2015 23:30      54    59.8      0.77        77.7     104.0      70.1       0       2      56      38    1011    0.00
    08/28/2015 23:40      57    60.0      0.77        77.1     104.0      70.1       0       0      44      44    1011    0.00
    08/28/2015 23:50      58    60.1      0.77        76.2     104.0      70.1       0       0       0     309    1011    0.00
    08/29/2015 00:00      59    60.2      0.77        75.7     104.0      70.1       0       0       0     309    1011    0.00
    08/29/2015 00:10      60    60.2      0.77        75.3      75.5      75.0       0       0       0     173    1011    0.00
    08/29/2015 00:20      60    60.3      0.77        75.0      75.5      74.8       0       0       0     166    1011    0.00
    08/29/2015 00:30      59    60.0      0.77        75.0      75.5      74.7       0       1      70      83    1011    0.00
    08/29/2015 00:40      58    59.9      0.77        75.3      75.6      74.7       0       0     354     350    1011    0.00
    08/29/2015 00:50      56    59.3      0.77        75.7      76.0      74.7       0       2      22      16    1011    0.00
    08/29/2015 01:00      53    58.6      0.77        76.1      76.7      74.7       1       2      59      56    1011    0.00
    08/29/2015 01:10      54    58.5      0.77        76.8      77.0      74.7       0       3      86      57    1011    0.00
    08/29/2015 01:20      55    58.8      0.77        76.4      77.0      74.7       0       2      46      64    1011    0.00
    08/29/2015 01:30      56    58.8      0.77        75.8      77.0      74.7       0       0       4     354    1011    0.00
    08/29/2015 01:40      56    58.8      0.77        75.4      77.0      74.7       0       0     325     317    1011    0.00
    08/29/2015 01:50      57    58.8      0.77        75.3      77.0      74.7       0       2      20      27    1011    0.00
    08/29/2015 02:00      59    58.8      0.77        74.1      77.0      73.6       0       0     286     288    1010    0.00
    08/29/2015 02:10      58    58.1      0.77        73.7      77.0      73.5       0       0       0     302    1010    0.00
    08/29/2015 02:20      59    57.9      0.77        73.5      77.0      73.2       0       0       0     287    1010    0.00
    08/29/2015 02:30      60    57.9      0.77        72.7      77.0      72.4       0       0       0     278    1010    0.00
    08/29/2015 02:40      59    57.6      0.77        72.4      77.0      72.2       0       0       0     262    1011    0.00
    08/29/2015 02:50      59    57.6      0.77        72.6      77.0      72.2       0       0       0     289    1011    0.00
    08/29/2015 03:00      59    57.5      0.77        72.8      77.0      72.2       0       0     342     341    1011    0.00
    08/29/2015 03:10      59    57.4      0.77        72.5      77.0      72.2       0       0      82      87    1011    0.00
    08/29/2015 03:20      59    57.2      0.77        72.3      77.0      72.1       0       0       0      81    1011    0.00
    08/29/2015 03:30      59    57.2      0.77        72.3      77.0      72.1       0       0       0      27    1010    0.00
    08/29/2015 03:40      59    56.8      0.77        72.1      77.0      71.9       0       0       0      36    1010    0.00
    08/29/2015 03:50      60    56.8      0.77        71.8      77.0      71.4       0       0       0      77    1010    0.00
    08/29/2015 04:00      61    56.9      0.77        71.3      77.0      71.1       0       0       0     287    1010    0.00
    08/29/2015 04:10      60    56.8      0.77        71.1      77.0      70.9       0       0       0     258    1010    0.00
    08/29/2015 04:20      60    56.3      0.77        71.0      77.0      70.7       0       0       0     282    1010    0.00
    08/29/2015 04:30      60    56.2      0.77        71.0      77.0      70.7       0       0       0     283    1010    0.00
    08/29/2015 04:40      61    56.3      0.77        70.8      77.0      70.6       0       0       0     288    1010    0.00
    08/29/2015 04:50      62    56.6      0.77        70.6      77.0      70.4       0       0       0     288    1011    0.00
    08/29/2015 05:00      61    56.6      0.77        70.6      77.0      70.4       0       0     346     347    1011    0.00
    08/29/2015 05:10      63    56.5      0.77        70.3      77.0      69.8       0       0       0     336    1011    0.00
    08/29/2015 05:20      63    56.8      0.77        69.8      77.0      69.7       0       0       0     322    1011    0.00
    08/29/2015 05:30      63    56.8      0.77        70.1      77.0      69.7       0       0       0     324    1011    0.00
    08/29/2015 05:40      64    56.8      0.77        69.9      77.0      69.4       0       0       0      86    1011    0.00
    08/29/2015 05:50      62    56.4      0.77        69.8      77.0      69.4       0       0       0      65    1011    0.00
    08/29/2015 06:00      62    56.4      0.77        69.8      77.0      69.4       0       0     264     264    1011    0.00
    08/29/2015 06:10      62    56.5      0.77        70.1      77.0      69.4       0       1      56      57    1011    0.00
    08/29/2015 06:20      61    56.8      0.77        70.9      77.0      69.4       0       0     311     303    1011    0.00
    08/29/2015 06:30      56    56.7      0.77        72.3      77.0      69.4       0       0       0     320    1011    0.00
    08/29/2015 06:40      51    56.3      0.77        74.3      77.0      69.4       0       0       0     275    1012    0.00
    08/29/2015 06:50      52    57.2      0.77        77.1      77.8      69.4       0       2     294     295    1012    0.00
    08/29/2015 07:00      51    57.2      0.77        76.5      77.8      69.4       0       3     331     316    1012    0.00
    08/29/2015 07:10      46    57.5      0.77        78.4      80.2      69.4       0       1     335     350    1012    0.00
    08/29/2015 07:20      47    57.2      0.77        80.4      80.9      69.4       0       2     241     267    1012    0.00
    08/29/2015 07:30      44    57.4      0.77        80.5      81.2      69.4       0       2     158     152    1012    0.00
    08/29/2015 07:40      45    56.8      0.77        80.3      81.2      69.4       1       3     184     183    1012    0.00
    08/29/2015 07:50      44    57.0      0.77        80.5      81.3      69.4       1       2     169     154    1012    0.00
    08/29/2015 08:00      40    55.8      0.77        81.4      82.2      69.4       0       1     157     208    1012    0.00
    08/29/2015 08:10      39    55.6      0.77        82.7      83.5      69.4       0       2     167     290    1012    0.00
    08/29/2015 08:20      35    54.8      0.77        83.7      84.2      69.4       1       3     194     230    1012    0.00
    08/29/2015 08:30      34    53.4      0.77        84.0      84.6      69.4       0       3     179     232    1012    0.00
    08/29/2015 08:40      33    53.4      0.77        85.0      85.7      69.4       0       4     174     186    1012    0.00
    08/29/2015 08:50      31    51.6      0.77        85.3      85.7      69.4       0       2     169     182    1012    0.00
    08/29/2015 09:00      32    52.4      0.77        86.0      86.6      69.4       2       4     163     175    1012    0.00
    08/29/2015 09:10      30    53.0      0.77        87.0      87.7      69.4       3       6     150     146    1012    0.00
    08/29/2015 09:20      30    53.0      0.77        87.8      88.3      69.4       2       5     161     173    1012    0.00
    08/29/2015 09:30      27    51.7      0.77        88.2      88.7      69.4       2       5     165     146    1012    0.00
    08/29/2015 09:40      29    51.5      0.77        89.3      89.9      69.4       1       5     193     164    1012    0.00
    08/29/2015 09:50      26    52.1      0.77        90.0      90.7      69.4       3       5     155     119    1012    0.00
    08/29/2015 10:00      27    50.3      0.77        90.2      91.0      69.4       2       4     150     134    1012    0.00
    08/29/2015 10:10      22    50.6      0.77        92.0      92.8      69.4       3       7     121     159    1012    0.00
    08/29/2015 10:20      22    48.0      0.77        91.8      92.8      69.4       2       5     103     142    1012    0.00
    08/29/2015 10:30      21    49.2      0.77        93.1      93.8      69.4       2       7     143     141    1012    0.00
    08/29/2015 10:40      20    47.3      0.77        93.8      94.3      69.4       2       6     130     137    1012    0.00
    08/29/2015 10:50      20    45.8      0.77        93.2      94.3      69.4       2       6     134     183    1012    0.00
    08/29/2015 11:00      21    44.7      0.77        93.9      94.6      69.4       2       5     178     158    1012    0.00
    08/29/2015 11:10      18    44.5      0.77        95.3      95.8      69.4       3       6     117      80    1011    0.00
    08/29/2015 11:20      17    45.1      0.77        95.9      96.5      69.4       2       5      76      47    1011    0.00
    08/29/2015 11:30      18    46.5      0.77        96.5      96.9      69.4       4       7     156     185    1011    0.00
    08/29/2015 11:40      20    46.9      0.77        96.8      97.2      69.4       3       6     181     143    1011    0.00
    08/29/2015 11:50      17    47.3      0.77        97.4      97.9      69.4       4       7     185     160    1011    0.00
    08/29/2015 12:00      17    45.5      0.77        97.9      98.4      69.4       2       5     168     223    1011    0.00
    08/29/2015 12:10      16    44.9      0.77        97.2      98.4      69.4       2       6     151     170    1011    0.00
    08/29/2015 12:20      16    45.0      0.77        97.8      99.4      69.4       1       5     269     232    1011    0.00
    08/29/2015 12:30      20    47.0      0.77        98.7      99.4      69.4       3       9     106      89    1011    0.00
    08/29/2015 12:40      21    51.1      0.77        98.2      99.4      69.4       6      12     110      55    1010    0.00
    08/29/2015 12:50      21    52.2      0.77        98.6      99.4      69.4       5      10     126     132    1010    0.00
    08/29/2015 13:00      21    53.1      0.77        98.5      99.4      69.4       6      12     148     155    1010    0.00
    08/29/2015 13:10      22    52.4      0.77        97.8      99.4      69.4       5      10     127     162    1010    0.00
    08/29/2015 13:20      22    52.3      0.77        97.4      99.4      69.4       6      11     133     146    1010    0.00
    08/29/2015 13:30      22    52.7      0.77        97.3      99.4      69.4       6      13     122     156    1010    0.00
    08/29/2015 13:40      21    52.0      0.77        98.7      99.4      69.4       4       8     126     149    1010    0.00
    08/29/2015 13:50      22    51.6      0.77        97.7      99.4      69.4       5      10     164     156    1010    0.00
    08/29/2015 14:00      21    49.8      0.77        98.2      99.4      69.4       2       7     153     213    1010    0.00
    08/29/2015 14:10      17    47.7      0.77        98.0      99.4      69.4       4       9     229     246    1010    0.00
    08/29/2015 14:20      17    45.6      0.77        98.8      99.4      69.4       5      13     278     271    1010    0.00
    08/29/2015 14:30      16    45.8      0.77        99.1      99.6      69.4       6      15     268     262    1010    0.00
    08/29/2015 14:40      16    45.2      0.77        98.1      99.6      69.4       6      15     284     243    1010    0.00
    08/29/2015 14:50      17    44.9      0.77        97.9      99.6      69.4       7      16     276     269    1010    0.00
    08/29/2015 15:00      17    45.2      0.77        97.9      99.6      69.4       7      13     274     245    1010    0.00
    08/29/2015 15:10      17    45.3      0.77        97.5      99.6      69.4       8      14     270     238    1009    0.00
    08/29/2015 15:20      17    45.1      0.77        96.8      99.6      69.4       7      14     281     269    1010    0.00
    08/29/2015 15:30      17    44.8      0.77        96.2      99.6      69.4       8      17     275     256    1009    0.00
    08/29/2015 15:40      17    44.7      0.77        95.9      99.6      69.4       8      15     274     243    1009    0.00
    08/29/2015 15:50      18    44.7      0.77        95.5      99.6      69.4       7      14     278     257    1009    0.00
    08/29/2015 16:00      19    45.0      0.77        94.9      99.6      69.4       8      17     266     245    1009    0.00
    08/29/2015 16:10      19    46.9      0.77        94.5      99.6      69.4       6      15     273     248    1009    0.00
    08/29/2015 16:20      21    47.7      0.77        94.2      99.6      69.4       7      15     269     241    1009    0.00
    08/29/2015 16:30      22    48.5      0.77        93.6      99.6      69.4       8      16     264     253    1009    0.00
    08/29/2015 16:40      22    48.6      0.77        93.0      99.6      69.4       7      12     281     290    1009    0.00
    08/29/2015 16:50      23    48.8      0.77        92.3      99.6      69.4       6      13     275     250    1009    0.00
    08/29/2015 17:00      23    48.4      0.77        91.5      99.6      69.4       7      15     272     241    1009    0.00
    08/29/2015 17:10      24    48.5      0.77        91.1      99.6      69.4       5      12     276     258    1009    0.00
    08/29/2015 17:20      24    48.8      0.77        91.1      99.6      69.4       4       7     282     283    1009    0.00
    08/29/2015 17:30      24    49.2      0.77        90.7      99.6      69.4       4       9     287     238    1009    0.00
    08/29/2015 17:40      25    49.4      0.77        90.2      99.6      69.4       4       9     296     289    1009    0.00
    08/29/2015 17:50      25    49.5      0.77        89.6      99.6      69.4       3       8     288     292    1009    0.00
    08/29/2015 18:00      25    49.6      0.77        89.6      99.6      69.4       3       6     280     255    1009    0.00
    08/29/2015 18:10      26    49.9      0.77        89.2      99.6      69.4       3       7     270     237    1009    0.00
    08/29/2015 18:20      27    50.0      0.77        88.3      99.6      69.4       2       5     294     310    1009    0.00
    08/29/2015 18:30      28    50.1      0.77        87.5      99.6      69.4       2       6     291     234    1009    0.00
    08/29/2015 18:40      28    50.1      0.77        87.0      99.6      69.4       0       2     293     283    1009    0.00
    08/29/2015 18:50      29    50.3      0.77        86.6      99.6      69.4       0       1     296     277    1009    0.00
    08/29/2015 19:00      30    50.5      0.77        86.1      99.6      69.4       0       1     283     282    1009    0.00
    08/29/2015 19:10      30    50.6      0.77        85.9      99.6      69.4       0       3     281     254    1009    0.00
    08/29/2015 19:20      32    51.1      0.77        85.2      99.6      69.4       2       4     239     260    1009    0.00
    08/29/2015 19:30      34    52.4      0.77        84.4      99.6      69.4       3       5     205     202    1009    0.00
    08/29/2015 19:40      34    52.4      0.77        83.8      99.6      69.4       1       4     212     176    1010    0.00
    08/29/2015 19:50      35    53.3      0.77        83.7      99.6      69.4       2       4     276     235    1010    0.00
    08/29/2015 20:00      35    53.0      0.77        83.3      99.6      69.4       1       3     239     265    1010    0.00
    08/29/2015 20:10      38    53.8      0.77        82.8      99.6      69.4       1       4     275     258    1010    0.00
    08/29/2015 20:20      39    53.9      0.77        82.4      99.6      69.4       0       3     226     198    1010    0.00
    08/29/2015 20:30      40    54.1      0.77        81.8      99.6      69.4       0       2     236     274    1010    0.00
    08/29/2015 20:40      40    54.8      0.77        81.6      99.6      69.4       0       2     248     245    1010    0.00
    08/29/2015 20:50      40    54.8      0.77        81.4      99.6      69.4       0       0       0     278    1010    0.00
    08/29/2015 21:00      40    54.9      0.77        81.3      99.6      69.4       0       0       0     290    1010    0.00
    08/29/2015 21:10      41    54.8      0.77        80.8      99.6      69.4       0       0       0     271    1010    0.00
    08/29/2015 21:20      42    54.8      0.77        80.3      99.6      69.4       0       0       0     272    1010    0.00
    08/29/2015 21:30      44    55.9      0.77        79.6      99.6      69.4       0       0       0     308    1010    0.00
    08/29/2015 21:40      42    55.0      0.77        79.3      99.6      69.4       0       0     140     139    1010    0.00
    08/29/2015 21:50      44    55.2      0.77        79.4      99.6      69.4       0       2     156     160    1010    0.00
    08/29/2015 22:00      44    55.4      0.77        79.2      99.6      69.4       0       2     141     143    1010    0.00
    08/29/2015 22:10      44    55.1      0.77        79.1      99.6      69.4       0       1     143     157    1010    0.00
    08/29/2015 22:20      46    55.9      0.77        78.5      99.6      69.4       0       0       0     156    1010    0.00
    08/29/2015 22:30      45    55.5      0.77        78.1      99.6      69.4       0       0     161     167    1010    0.00
    08/29/2015 22:40      46    55.1      0.77        78.2      99.6      69.4       0       0       0     136    1010    0.00
    08/29/2015 22:50      47    56.1      0.77        77.8      99.6      69.4       0       2     111     131    1010    0.00
    08/29/2015 23:00      51    56.9      0.77        77.3      99.6      69.4       0       0       0     115    1010    0.00
    08/29/2015 23:10      51    57.1      0.77        76.5      99.6      69.4       0       0       0     295    1010    0.00
    08/29/2015 23:20      52    57.4      0.77        76.3      99.6      69.4       0       2     130     126    1010    0.00
    08/29/2015 23:30      52    57.8      0.77        76.6      99.6      69.4       2       5      93      83    1010    0.00
    08/29/2015 23:40      53    58.9      0.77        77.6      99.6      69.4       3       5      85      65    1010    0.00
    08/29/2015 23:50      54    59.2      0.77        77.5      99.6      69.4       0       3      85      88    1010    0.00
    08/30/2015 00:00      54    59.3      0.77        77.3      99.6      69.4       2       4      75     110    1010    0.00
    08/30/2015 00:10      54    59.2      0.77        77.1      77.3      76.8       2       4      73      78    1010    0.00
    08/30/2015 00:20      55    59.1      0.77        76.8      77.3      76.5       1       3      66      78    1010    0.00
    08/30/2015 00:30      55    59.1      0.77        76.5      77.3      76.2       2       4      63      76    1010    0.00
    08/30/2015 00:40      56    59.2      0.77        76.3      77.3      76.0       1       3      66      73    1010    0.00
    08/30/2015 00:50      59    59.5      0.77        75.3      77.3      74.7       0       2     258     270    1010    0.00
    08/30/2015 01:00      60    59.5      0.77        74.4      77.3      74.1       0       2     161     145    1010    0.00
    08/30/2015 01:10      60    59.4      0.77        74.1      77.3      73.8       0       2     162     151    1010    0.00
    08/30/2015 01:20      60    59.5      0.77        74.0      77.3      73.8       0       2     100      87    1010    0.00
    08/30/2015 01:30      58    59.5      0.77        74.7      77.3      73.8       1       3      73      89    1010    0.00
    08/30/2015 01:40      58    59.5      0.77        75.2      77.3      73.8       0       2      58      49    1010    0.00
    08/30/2015 01:50      58    59.5      0.77        75.2      77.3      73.8       1       3      79      82    1010    0.00
    08/30/2015 02:00      59    59.6      0.77        74.9      77.3      73.8       1       4      66      65    1010    0.00
    08/30/2015 02:10      60    59.6      0.77        74.7      77.3      73.8       0       2      73      93    1010    0.00
    08/30/2015 02:20      60    59.7      0.77        74.5      77.3      73.8       1       3      60      66    1010    0.00
    08/30/2015 02:30      61    59.8      0.77        74.3      77.3      73.8       2       4      70      57    1010    0.00
    08/30/2015 02:40      62    59.8      0.77        74.0      77.3      73.5       0       0      47      55    1010    0.00
    08/30/2015 02:50      63    59.8      0.77        73.3      77.3      72.9       0       2     149     132    1010    0.00
    08/30/2015 03:00      65    60.0      0.77        72.8      77.3      72.6       0       2     151     135    1010    0.00
    08/30/2015 03:10      65    60.1      0.77        72.6      77.3      72.4       0       2     151     162    1011    0.00
    08/30/2015 03:20      66    60.4      0.77        72.6      77.3      72.4       0       2     117     124    1011    0.00
    08/30/2015 03:30      66    60.9      0.77        72.8      77.3      72.4       0       3      87      80    1011    0.00
    08/30/2015 03:40      67    61.0      0.77        72.8      77.3      72.4       0       2      75      52    1011    0.00
    08/30/2015 03:50      68    61.3      0.77        72.7      77.3      72.4       2       4      62      44    1011    0.00
    08/30/2015 04:00      69    61.5      0.77        72.5      77.3      72.3       2       4      59      62    1011    0.00
    08/30/2015 04:10      69    61.6      0.77        72.3      77.3      72.1       2       4      43      32    1011    0.00
    08/30/2015 04:20      70    61.6      0.77        72.2      77.3      71.9       2       4      43      44    1011    0.00
    08/30/2015 04:30      71    61.8      0.77        72.0      77.3      71.7       1       3      41      58    1011    0.00
    08/30/2015 04:40      72    61.9      0.77        71.7      77.3      71.5       1       4      45      65    1011    0.00
    08/30/2015 04:50      72    62.1      0.77        71.7      77.3      71.4       2       3      68      63    1011    0.00
    08/30/2015 05:00      72    62.0      0.77        71.6      77.3      71.3       0       3      73      58    1011    0.00
    08/30/2015 05:10      73    61.9      0.77        71.2      77.3      70.9       0       3      64      70    1011    0.00
    08/30/2015 05:20      73    62.1      0.77        71.1      77.3      70.9       2       4      47      40    1011    0.00
    08/30/2015 05:30      73    62.1      0.77        71.3      77.3      70.9       2       4      22      47    1011    0.00
    08/30/2015 05:40      72    62.0      0.77        71.3      77.3      70.9       1       3      31      12    1011    0.00
    08/30/2015 05:50      70    61.7      0.77        71.5      77.3      70.9       2       3      42      54    1011    0.00
    08/30/2015 06:00      69    61.5      0.77        71.8      77.3      70.9       2       3      47      48    1011    0.00
    08/30/2015 06:10      69    61.4      0.77        72.2      77.3      70.9       1       3      35      38    1012    0.00
    08/30/2015 06:20      67    61.3      0.77        72.5      77.3      70.9       1       2      55      41    1012    0.00
    08/30/2015 06:30      66    61.3      0.77        73.0      77.3      70.9       0       2      56      41    1012    0.00
    08/30/2015 06:40      63    61.4      0.77        74.2      77.3      70.9       0       2      62      93    1012    0.00
    08/30/2015 06:50      60    61.2      0.77        75.2      77.3      70.9       0       2      44      62    1012    0.00
    08/30/2015 07:00      60    60.9      0.77        76.0      77.3      70.9       0       1      34      35    1012    0.00
    08/30/2015 07:10      57    61.0      0.77        76.8      77.7      70.9       0       1      16     322    1012    0.00
    08/30/2015 07:20      57    60.8      0.77        77.5      78.3      70.9       0       3     294     289    1012    0.00
    08/30/2015 07:30      56    60.5      0.77        76.8      78.3      70.9       0       3     304     317    1012    0.00
    08/30/2015 07:40      52    60.3      0.77        78.8      79.4      70.9       0       2      57      24    1012    0.00
    08/30/2015 07:50      52    60.3      0.77        79.7      80.0      70.9       1       3     123     164    1012    0.00
    08/30/2015 08:00      53    60.5      0.77        79.3      80.0      70.9       2       4     159     173    1012    0.00
    08/30/2015 08:10      52    60.0      0.77        79.3      80.0      70.9       1       4     177     157    1012    0.00
    08/30/2015 08:20      52    60.4      0.77        79.9      80.4      70.9       3       6     165     132    1012    0.00
    08/30/2015 08:30      50    60.5      0.77        79.7      80.4      70.9       3       5     181     175    1012    0.00
    08/30/2015 08:40      47    59.4      0.77        80.8      81.3      70.9       3       6     142     202    1012    0.00
    08/30/2015 08:50      46    59.2      0.77        81.6      82.4      70.9       3       5     165     119    1012    0.00
    08/30/2015 09:00      42    58.8      0.77        82.8      83.3      70.9       2       4     143     132    1012    0.00
    08/30/2015 09:10      42    58.5      0.77        83.7      84.4      70.9       2       5     128     153    1012    0.00
    08/30/2015 09:20      41    58.4      0.77        84.4      84.9      70.9       2       6     121     163    1012    0.00
    08/30/2015 09:30      41    57.8      0.77        84.4      85.2      70.9       4       7     174     169    1012    0.00
    08/30/2015 09:40      36    56.9      0.77        85.1      85.9      70.9       3       7     125     173    1012    0.00
    08/30/2015 09:50      37    55.5      0.77        85.2      85.9      70.9       2       4     126     134    1012    0.00
    08/30/2015 10:00      36    56.0      0.77        85.7      86.1      70.9       3       7      84      51    1012    0.00
    08/30/2015 10:10      38    56.1      0.77        86.1      86.5      70.9       4       7     117     147    1012    0.00
    08/30/2015 10:20      38    57.8      0.77        86.5      86.7      70.9       3       7     152     174    1012    0.00
    08/30/2015 10:30      36    57.5      0.77        86.8      87.5      70.9       4       9     114      91    1012    0.00
    08/30/2015 10:40      36    56.4      0.77        87.3      87.7      70.9       4      11     124      86    1012    0.00
    08/30/2015 10:50      34    56.7      0.77        88.2      89.2      70.9       4      10     104     146    1012    0.00
    08/30/2015 11:00      35    57.4      0.77        88.6      89.2      70.9       4       9     122     129    1012    0.00
    08/30/2015 11:10      38    57.9      0.77        88.1      89.2      70.9       5       9     130     159    1012    0.00
    08/30/2015 11:20      34    58.1      0.77        88.9      89.8      70.9       5      12     126     148    1011    0.00
    08/30/2015 11:30      34    57.4      0.77        88.8      89.8      70.9       6      11      99      93    1011    0.00
    08/30/2015 11:40      33    57.6      0.77        89.4      90.0      70.9       5      11     124     141    1011    0.00
    08/30/2015 11:50      33    57.4      0.77        89.9      90.8      70.9       5      10     129     152    1011    0.00
    08/30/2015 12:00      33    57.3      0.77        89.7      90.8      70.9       5      11     123     110    1011    0.00
    08/30/2015 12:10      33    57.3      0.77        89.6      90.8      70.9       5      10     103      94    1011    0.00
    08/30/2015 12:20      32    57.6      0.77        90.5      91.1      70.9       6      11     139     171    1011    0.00
    08/30/2015 12:30      33    57.8      0.77        91.3      91.7      70.9       4       9     120     159    1011    0.00
    08/30/2015 12:40      33    58.4      0.77        90.8      91.7      70.9       4      10     125     152    1011    0.00
    08/30/2015 12:50      35    58.6      0.77        90.5      91.7      70.9       5      10     126     129    1011    0.00
    08/30/2015 13:00      34    59.5      0.77        90.3      91.7      70.9       6      13     132     150    1011    0.00
    08/30/2015 13:10      35    58.8      0.77        90.2      91.7      70.9       6      10     137     159    1010    0.00
    08/30/2015 13:20      33    58.7      0.77        90.6      91.7      70.9       5      12     126     154    1010    0.00
    08/30/2015 13:30      34    58.5      0.77        90.5      91.7      70.9       6      10     125     147    1010    0.00
    08/30/2015 13:40      33    58.5      0.77        90.8      91.9      70.9       5      10     138     141    1010    0.00
    08/30/2015 13:50      33    58.0      0.77        91.4      92.1      70.9       5       9     116     112    1010    0.00
    08/30/2015 14:00      34    57.5      0.77        90.8      92.1      70.9       5      11     101      83    1010    0.00
    08/30/2015 14:10      34    58.0      0.77        90.6      92.1      70.9       5      11     120      97    1010    0.00
    08/30/2015 14:20      34    58.2      0.77        90.5      92.1      70.9       6      12     107      86    1009    0.00
    08/30/2015 14:30      34    57.7      0.77        89.7      92.1      70.9       6      11     103      96    1009    0.00
    08/30/2015 14:40      34    57.5      0.77        89.6      92.1      70.9       5      12     115     117    1009    0.00
    08/30/2015 14:50      34    57.4      0.77        89.2      92.1      70.9       6      14     100      83    1009    0.00
    08/30/2015 15:00      35    57.2      0.77        89.1      92.1      70.9       6      14      99      85    1009    0.00
    08/30/2015 15:10      34    57.4      0.77        89.4      92.1      70.9       5      11     102      72    1009    0.00
    08/30/2015 15:20      34    57.3      0.77        89.3      92.1      70.9       5      10      98      96    1009    0.00
    08/30/2015 15:30      34    57.2      0.77        88.8      92.1      70.9       5       9     118     108    1009    0.00
    08/30/2015 15:40      35    57.2      0.77        88.4      92.1      70.9       5      11     110     150    1009    0.00
    08/30/2015 15:50      35    57.5      0.77        88.7      92.1      70.9       4      12     113      85    1009    0.00
    08/30/2015 16:00      34    57.1      0.77        88.4      92.1      70.9       4       9     106      66    1009    0.00
    08/30/2015 16:10      34    56.7      0.77        88.3      92.1      70.9       4       8      99      79    1009    0.00
    08/30/2015 16:20      34    55.9      0.77        87.9      92.1      70.9       5      11      99     117    1009    0.00
    08/30/2015 16:30      35    55.7      0.77        87.0      92.1      70.9       5       9      94      52    1009    0.00
    08/30/2015 16:40      36    55.8      0.77        86.7      92.1      70.9       5      10      95      79    1009    0.00
    08/30/2015 16:50      36    56.3      0.77        86.4      92.1      70.9       4       8      97      76    1009    0.00
    08/30/2015 17:00      38    56.7      0.77        86.3      92.1      70.9       4       9     103      83    1009    0.00
    08/30/2015 17:10      39    57.6      0.77        85.8      92.1      70.9       4       8      89      97    1009    0.00
    08/30/2015 17:20      40    58.0      0.77        85.6      92.1      70.9       3       7      98      84    1009    0.00
    08/30/2015 17:30      41    58.2      0.77        84.5      92.1      70.9       3       7      97     101    1009    0.00
    08/30/2015 17:40      42    58.1      0.77        84.0      92.1      70.9       3       6      91      97    1008    0.00
    08/30/2015 17:50      43    57.9      0.77        83.6      92.1      70.9       1       4      90      25    1008    0.00
    08/30/2015 18:00      44    58.0      0.77        82.5      92.1      70.9       2       4     164     147    1009    0.00
    08/30/2015 18:10      45    58.0      0.77        81.9      92.1      70.9       2       5      90      99    1009    0.00
    08/30/2015 18:20      46    57.9      0.77        80.7      92.1      70.9       2       5     121     143    1008    0.00
    08/30/2015 18:30      46    57.5      0.77        80.0      92.1      70.9       1       4     119      95    1008    0.00
    08/30/2015 18:40      46    57.0      0.77        79.9      92.1      70.9       1       4     105     101    1008    0.00
    08/30/2015 18:50      46    56.8      0.77        79.3      92.1      70.9       1       4     102      91    1008    0.00
    08/30/2015 19:00      47    56.9      0.77        79.0      92.1      70.9       3       5      81      77    1009    0.00
    08/30/2015 19:10      48    57.1      0.77        78.6      92.1      70.9       2       4      90      65    1009    0.00
    08/30/2015 19:20      49    57.1      0.77        78.3      92.1      70.9       3       5      77      62    1009    0.00
    08/30/2015 19:30      49    57.3      0.77        78.1      92.1      70.9       2       5      83      83    1009    0.00
    08/30/2015 19:40      50    57.6      0.77        77.9      92.1      70.9       2       5      88      89    1009    0.00
    08/30/2015 19:50      51    57.8      0.77        77.2      92.1      70.9       1       4     102      80    1009    0.00
    08/30/2015 20:00      52    57.8      0.77        76.9      92.1      70.9       2       5     107      89    1009    0.00
    08/30/2015 20:10      51    57.5      0.77        76.6      92.1      70.9       2       5      91      71    1009    0.00
    08/30/2015 20:20      53    57.3      0.77        76.2      92.1      70.9       3       4      75      47    1009    0.00
    08/30/2015 20:30      53    57.5      0.77        76.0      92.1      70.9       3       5      73      77    1010    0.00
    08/30/2015 20:40      53    57.5      0.77        75.9      92.1      70.9       3       5      67      79    1010    0.00
    08/30/2015 20:50      53    57.4      0.77        75.7      92.1      70.9       3       5      77      94    1010    0.00
    08/30/2015 21:00      54    57.6      0.77        75.5      92.1      70.9       3       6      69      60    1010    0.00
    08/30/2015 21:10      53    57.0      0.77        75.0      92.1      70.9       4       7      64      56    1010    0.00
    08/30/2015 21:20      54    56.8      0.77        74.8      92.1      70.9       3       6      72      52    1010    0.00
    08/30/2015 21:30      54    57.0      0.77        74.6      92.1      70.9       4       7      79      76    1010    0.00
    08/30/2015 21:40      54    57.0      0.77        74.5      92.1      70.9       3       5      80      89    1010    0.00
    08/30/2015 21:50      55    56.8      0.77        74.3      92.1      70.9       0       3     107      62    1010    0.00
    08/30/2015 22:00      55    56.8      0.77        74.0      92.1      70.9       0       4      83      96    1010    0.00
    08/30/2015 22:10      56    56.8      0.77        73.7      92.1      70.9       0       3      92      48    1010    0.00
    08/30/2015 22:20      56    56.8      0.77        73.6      92.1      70.9       2       3      80     106    1010    0.00
    08/30/2015 22:30      56    56.8      0.77        73.5      92.1      70.9       1       3      65      64    1010    0.00
    08/30/2015 22:40      57    56.9      0.77        73.4      92.1      70.9       2       4      72      87    1010    0.00
    08/30/2015 22:50      57    57.2      0.77        73.3      92.1      70.9       2       4      45      61    1010    0.00
    08/30/2015 23:00      58    57.4      0.77        73.2      92.1      70.9       2       4      44      25    1010    0.00
    08/30/2015 23:10      58    57.6      0.77        73.2      92.1      70.9       2       5      61      45    1010    0.00
    08/30/2015 23:20      59    57.8      0.77        73.0      92.1      70.9       2       4      69      60    1010    0.00
    08/30/2015 23:30      59    57.8      0.77        72.8      92.1      70.9       2       4      71      60    1010    0.00
    08/30/2015 23:40      60    57.9      0.77        72.7      92.1      70.9       2       4      79      84    1010    0.00
    08/30/2015 23:50      61    57.8      0.77        72.3      92.1      70.9       1       3     120      93    1010    0.00
    08/31/2015 00:00      61    57.9      0.77        71.8      92.1      70.9       0       2      70      75    1010    0.00
    08/31/2015 00:10      63    57.9      0.77        71.4      71.9      70.8       0       0     251     261    1010    0.00
    08/31/2015 00:20      64    57.9      0.77        70.8      71.9      70.5       0       1     275     317    1010    0.00
    08/31/2015 00:30      65    57.9      0.77        70.6      71.9      70.3       0       0       0     180    1010    0.00
    08/31/2015 00:40      66    58.0      0.77        70.3      71.9      70.0       0       0       0     180    1010    0.00
    08/31/2015 00:50      66    58.0      0.77        69.8      71.9      69.5       0       1     140     136    1010    0.00